Latest Weather Observations for Bushy Park

IDT60901

Issued at 6:21 pm EST Tuesday 17 September 2019 (issued every 10 minutes, with the page automatically refreshed every 10 minutes)

About weather observations | Map of Hobart area stations | Latest observations for Hobart area | Other Formats
Station Details ID: 095003 Name: BUSHY PARK (BUSHY PARK ESTATES) Lat: -42.71 Lon: 146.90 Height: 27.0 m
Data from the previous 72 hours. | See also: Recent months at Bushy Park
Date/Time
EST
Temp
°C
App
Temp
°C
Dew
Point
°C
Rel
Hum
%
Delta-T
°C
Wind Press
QNH
hPa
Press
MSL
hPa
Rain since
9am
mm
Dir  Spd
km/h
Gust
km/h
Spd
kts
Gust
kts
17/06:00pm 10.0 5.9 -0.4 48 4.1 W 11 17 6 9 - - 0.0
17/05:30pm 11.0 6.8 -0.6 44 4.6 W 11 17 6 9 - - 0.0
17/05:00pm 12.3 8.5 -0.6 41 5.2 W 9 13 5 7 - - 0.0
17/04:30pm 13.0 8.9 -0.2 40 5.4 W 11 17 6 9 - - 0.0
17/04:00pm 13.9 9.9 0.2 39 5.8 WNW 11 17 6 9 - - 0.0
17/03:30pm 14.3 9.7 -0.8 35 6.2 NW 13 22 7 12 - - 0.0
17/03:00pm 14.3 10.2 -0.1 37 6.0 NW 11 19 6 10 - - 0.0
17/02:30pm 13.7 9.1 -0.8 37 5.9 WNW 13 20 7 11 - - 0.0
17/02:00pm 13.9 7.6 -1.2 35 6.1 NNW 22 33 12 18 - - 0.0
17/01:30pm 13.8 8.9 -0.6 37 5.9 NNW 15 24 8 13 - - 0.0
17/01:00pm 13.0 6.6 0.8 43 5.1 N 24 30 13 16 - - 0.0
17/12:30pm 14.2 7.8 0.7 39 5.7 N 24 33 13 18 - - 0.0
17/12:00pm 13.6 6.3 0.1 39 5.6 N 28 33 15 18 - - 0.0
17/11:30am 12.0 7.8 -1.1 40 5.2 NNW 11 19 6 10 - - 0.0
17/11:00am 12.3 8.4 1.0 46 4.8 NNW 11 19 6 10 - - 0.0
17/10:30am 11.0 5.5 0.7 49 4.3 N 19 24 10 13 - - 0.0
17/10:00am 8.7 5.3 1.8 62 2.9 S 9 13 5 7 - - 0.0
17/09:30am 6.9 4.4 1.8 70 2.1 S 4 9 2 5 - - 0.0
17/09:00am 5.7 3.1 1.2 73 1.8 ESE 4 9 2 5 - - 0.4
17/08:30am 3.9 0.9 1.1 82 1.1 SSE 6 7 3 4 - - 0.4
17/08:00am 2.4 0.1 0.3 86 0.8 NE 2 7 1 4 - - 0.4
17/07:30am 0.6 -2.1 0.1 96 0.2 W 4 9 2 5 - - 0.4
17/07:00am -0.9 - - - - N 6 9 3 5 - - 0.4
17/06:30am -1.6 - - - - NNW 6 9 3 5 - - 0.4
17/06:00am -1.9 - - - - W 6 9 3 5 - - 0.4
17/05:30am -1.7 - - - - NW 4 9 2 5 - - 0.4
17/05:00am -1.7 - - - - NW 9 11 5 6 - - 0.4
17/04:30am -1.6 - - - - S 6 11 3 6 - - 0.4
17/04:00am -1.3 - - - - NE 4 11 2 6 - - 0.4
17/03:30am -1.1 - - - - S 6 9 3 5 - - 0.4
17/03:00am -1.1 - - - - WSW 7 9 4 5 - - 0.4
17/02:30am -0.8 - - - - WNW 9 11 5 6 - - 0.4
17/02:00am -0.5 - - - - NNW 4 9 2 5 - - 0.4
17/01:30am -0.4 - - - - CALM 0 0 0 0 - - 0.4
17/01:00am 0.1 - - - - NW 6 7 3 4 - - 0.4
17/12:30am -0.1 - - - - WNW 7 13 4 7 - - 0.4
17/12:00am 0.3 - - - - NW 7 11 4 6 - - 0.4
 
Date/Time
EST
Temp
°C
App
Temp
°C
Dew
Point
°C
Rel
Hum
%
Delta-T
°C
Wind Press
QNH
hPa
Press
MSL
hPa
Rain since
9am
mm
Dir  Spd
km/h
Gust
km/h
Spd
kts
Gust
kts
16/11:30pm 0.8 - - - - NW 7 9 4 5 - - 0.4
16/11:00pm 1.2 -1.2 -0.2 90 0.5 NNW 2 9 1 5 - - 0.4
16/10:30pm 1.7 -0.3 0.1 89 0.6 CALM 0 0 0 0 - - 0.4
16/10:00pm 2.1 -1.6 0.2 87 0.7 NNW 9 11 5 6 - - 0.4
16/09:30pm 2.4 -1.3 0.0 84 0.9 N 9 11 5 6 - - 0.4
16/09:00pm 2.5 -1.6 0.1 84 0.9 W 11 13 6 7 - - 0.4
16/08:30pm 4.2 0.1 -0.3 72 1.7 W 11 17 6 9 - - 0.4
16/08:00pm 4.4 1.0 -0.3 71 1.8 WSW 7 17 4 9 - - 0.4
16/07:30pm 3.7 0.9 -0.3 75 1.5 NE 4 11 2 6 - - 0.4
16/07:00pm 4.6 0.8 -0.7 68 2.0 W 9 15 5 8 - - 0.4
16/06:30pm 5.4 1.2 -0.6 65 2.3 SW 11 20 6 11 - - 0.4
16/06:00pm 6.1 0.3 -0.1 64 2.4 SW 20 37 11 20 - - 0.4
16/05:52pm 6.6 -0.8 -0.7 59 2.8 SSW 28 41 15 22 - - 0.4
16/05:30pm 7.0 2.7 -1.8 53 3.3 WSW 11 19 6 10 - - 0.4
16/05:00pm 7.5 2.5 -1.4 53 3.4 WSW 15 26 8 14 - - 0.4
16/04:30pm 7.4 1.3 0.1 60 2.9 WSW 22 35 12 19 - - 0.4
16/04:00pm 7.5 -0.8 -0.4 57 3.1 SW 33 48 18 26 - - 0.4
16/03:54pm 8.3 -1.4 -2.3 47 4.0 SW 39 48 21 26 - - 0.4
16/03:30pm 9.4 5.0 -2.8 42 4.6 W 11 22 6 12 - - 0.4
16/03:00pm 10.5 5.4 -5.3 32 5.6 W 13 20 7 11 - - 0.2
16/02:30pm 10.8 4.5 -3.9 35 5.4 WSW 20 33 11 18 - - 0.2
16/02:00pm 10.6 5.5 -1.6 42 4.8 W 15 30 8 16 - - 0.2
16/01:30pm 10.0 5.2 0.5 51 3.9 WNW 15 22 8 12 - - 0.2
16/01:00pm 6.8 1.7 0.8 65 2.4 W 17 30 9 16 - - 0.2
16/12:30pm 10.6 4.9 -0.9 45 4.6 WSW 19 33 10 18 - - 0.2
16/12:00pm 9.9 4.4 1.9 57 3.4 WSW 20 35 11 19 - - 0.2
16/11:30am 8.9 3.4 0.9 57 3.2 WSW 19 28 10 15 - - 0.2
16/11:00am 9.2 5.0 -0.6 50 3.9 SW 11 26 6 14 - - 0.2
16/10:30am 9.2 4.5 0.6 55 3.5 WSW 15 24 8 13 - - 0.2
16/10:00am 8.8 4.5 1.0 58 3.2 W 13 22 7 12 - - 0.2
16/09:30am 6.3 0.1 2.2 75 1.7 SW 24 35 13 19 - - 0.2
16/09:00am 8.1 2.5 1.3 62 2.8 WSW 20 28 11 15 - - 4.4
16/08:30am 6.9 3.3 2.9 76 1.7 WNW 11 15 6 8 - - 4.4
16/08:00am 4.3 0.2 2.3 87 0.8 WSW 13 22 7 12 - - 4.4
16/07:30am 5.6 0.7 1.9 77 1.5 WSW 17 28 9 15 - - 2.8
16/07:00am 4.5 0.4 2.3 86 0.9 SW 13 19 7 10 - - 2.8
16/06:30am 4.1 0.7 1.8 85 0.9 ENE 9 17 5 9 - - 2.4
16/06:00am 4.8 -0.7 2.1 83 1.1 SW 20 30 11 16 - - 2.4
16/05:30am 5.5 1.4 2.3 80 1.3 SW 13 24 7 13 - - 2.2
16/05:00am 5.6 2.0 2.7 81 1.2 W 11 19 6 10 - - 1.8
16/04:30am 5.8 1.8 2.9 82 1.2 WNW 13 20 7 11 - - 1.2
16/04:00am 6.6 0.7 2.0 72 1.9 W 22 41 12 22 - - 0.8
16/03:30am 6.9 1.2 3.1 77 1.6 W 22 44 12 24 - - 0.6
16/03:00am 7.4 3.8 2.7 72 2.0 NNE 11 19 6 10 - - 0.0
16/02:30am 8.1 2.6 1.6 63 2.7 NW 20 43 11 23 - - 0.0
16/02:00am 7.5 1.0 2.8 72 2.0 N 26 35 14 19 - - 0.0
16/01:30am 8.3 2.2 2.7 68 2.4 N 24 32 13 17 - - 0.0
16/01:00am 7.6 3.9 4.2 79 1.5 N 13 17 7 9 - - 0.0
16/12:30am 8.0 4.7 4.4 78 1.6 W 11 17 6 9 - - 0.0
16/12:00am 8.7 4.0 3.4 69 2.3 NNW 17 26 9 14 - - 0.0
 
Date/Time
EST
Temp
°C
App
Temp
°C
Dew
Point
°C
Rel
Hum
%
Delta-T
°C
Wind Press
QNH
hPa
Press
MSL
hPa
Rain since
9am
mm
Dir  Spd
km/h
Gust
km/h
Spd
kts
Gust
kts
15/11:30pm 7.9 3.6 3.5 74 1.9 NW 15 19 8 10 - - 0.0
15/11:00pm 7.0 3.7 4.3 83 1.2 W 11 15 6 8 - - 0.0
15/10:30pm 9.0 5.4 5.0 76 1.8 W 13 24 7 13 - - 0.0
15/10:00pm 9.6 3.2 3.4 65 2.7 NNW 26 35 14 19 - - 0.0
15/09:30pm 6.9 4.1 2.9 76 1.7 W 7 15 4 8 - - 0.0
15/09:00pm 7.9 5.5 2.2 67 2.4 N 4 9 2 5 - - 0.0
15/08:30pm 9.1 5.5 3.1 66 2.6 W 11 17 6 9 - - 0.0
15/08:00pm 9.6 5.9 2.1 59 3.2 WSW 11 13 6 7 - - 0.0
15/07:30pm 9.9 7.0 1.6 56 3.5 WNW 6 9 3 5 - - 0.0
15/07:00pm 9.9 6.8 1.3 55 3.6 NNW 7 13 4 7 - - 0.0
15/06:30pm 10.8 7.5 0.4 48 4.3 NNW 7 11 4 6 - - 0.0
15/06:00pm 12.1 6.1 -1.3 39 5.3 WSW 20 33 11 18 - - 0.0
15/05:30pm 12.1 7.4 1.0 46 4.7 WSW 15 24 8 13 - - 0.0
15/05:00pm 13.8 9.5 1.1 42 5.4 WSW 13 19 7 10 - - 0.0
15/04:30pm 15.0 11.1 1.3 39 6.0 WSW 11 22 6 12 - - 0.0
15/04:00pm 15.4 11.4 2.6 42 5.7 WSW 13 20 7 11 - - 0.0
15/03:30pm 15.5 11.3 1.5 38 6.1 WSW 13 22 7 12 - - 0.0
15/03:00pm 15.9 11.1 0.5 35 6.6 WSW 15 24 8 13 - - 0.0
15/02:30pm 16.4 10.9 2.0 38 6.4 WSW 20 30 11 16 - - 0.0
15/02:00pm 16.2 11.3 1.7 37 6.4 WSW 17 30 9 16 - - 0.0
15/01:30pm 16.6 10.5 2.9 40 6.2 WSW 24 35 13 19 - - 0.0
15/01:00pm 16.1 10.2 1.8 38 6.3 SW 22 33 12 18 - - 0.0
15/12:30pm 15.8 9.1 1.7 38 6.2 SW 26 41 14 22 - - 0.0
15/12:00pm 15.8 9.1 1.7 38 6.2 WSW 26 39 14 21 - - 0.0
15/11:30am 15.2 8.5 1.7 40 5.9 WSW 26 37 14 20 - - 0.0
15/11:25am 15.1 7.9 0.5 37 6.2 WSW 28 56 15 30 - - 0.0
15/11:00am 14.9 7.7 0.9 38 6.0 WSW 28 41 15 22 - - 0.0
15/10:30am 14.4 8.0 0.7 39 5.8 WSW 24 44 13 24 - - 0.0
15/10:00am 14.4 8.3 2.6 45 5.2 WSW 24 46 13 25 - - 0.0
15/09:30am 13.8 7.9 1.4 43 5.3 WSW 22 44 12 24 - - 0.0
15/09:00am 13.6 6.7 2.3 46 5.0 WSW 28 50 15 27 - - 0.2
15/08:30am 12.6 5.1 1.5 46 4.7 WSW 30 48 16 26 - - 0.2
15/08:13am 12.8 5.3 1.4 46 4.9 W 30 56 16 30 - - 0.2
15/08:00am 12.9 7.5 1.3 45 4.9 WSW 19 33 10 18 - - 0.2
15/07:30am 12.8 5.7 1.4 46 4.9 WNW 28 52 15 28 - - 0.2
15/07:01am 13.1 5.1 1.6 45 4.9 WNW 33 52 18 28 - - 0.2
15/07:00am 13.1 4.7 1.6 45 4.9 WNW 35 52 19 28 - - 0.2
15/06:30am 13.8 7.7 4.6 54 4.2 WNW 26 48 14 26 - - 0.2
15/06:00am 14.7 8.4 5.8 55 4.2 NW 28 50 15 27 - - 0.2
15/05:32am 14.7 8.3 7.0 60 3.8 NW 30 48 16 26 - - 0.2
15/05:30am 14.8 8.0 6.9 59 3.9 NW 32 48 17 26 - - 0.2
15/05:00am 14.4 8.8 7.3 62 3.5 NNW 26 46 14 25 - - 0.2
15/04:48am 14.5 8.6 7.5 63 3.5 NNW 28 46 15 25 - - 0.2
15/04:30am 14.4 8.5 7.6 63 3.4 NNW 28 41 15 22 - - 0.2
15/04:00am 14.2 7.0 7.6 64 3.3 N 35 52 19 28 - - 0.2
15/03:33am 14.0 6.7 7.3 64 3.3 N 35 54 19 29 - - 0.2
15/03:30am 13.8 6.9 7.3 65 3.2 N 33 48 18 26 - - 0.2
15/03:01am 13.6 6.4 7.5 66 3.0 NNW 35 54 19 29 - - 0.2
15/03:00am 13.6 5.9 7.3 65 3.1 NNW 37 54 20 29 - - 0.2
15/02:30am 13.5 6.7 7.7 68 2.9 NNW 33 56 18 30 - - 0.2
15/02:00am 13.5 6.5 6.7 63 3.3 NNW 33 52 18 28 - - 0.2
15/01:30am 13.5 6.6 6.5 62 3.4 NNW 32 50 17 27 - - 0.2
15/01:24am 13.3 6.2 6.5 63 3.3 NNW 33 52 18 28 - - 0.2
15/01:19am 13.3 5.1 6.5 63 3.3 NNW 39 52 21 28 - - 0.2
15/01:00am 13.3 8.6 6.0 61 3.5 NW 20 30 11 16 - - 0.2
15/12:30am 11.3 8.7 3.4 58 3.5 WSW 6 9 3 5 - - 0.2
15/12:00am 10.6 7.4 2.8 58 3.4 S 9 15 5 8 - - 0.2
 
Date/Time
EST
Temp
°C
App
Temp
°C
Dew
Point
°C
Rel
Hum
%
Delta-T
°C
Wind Press
QNH
hPa
Press
MSL
hPa
Rain since
9am
mm
Dir  Spd
km/h
Gust
km/h
Spd
kts
Gust
kts
14/11:30pm 10.6 7.2 1.9 55 3.7 S 9 11 5 6 - - 0.2
14/11:00pm 10.4 6.9 1.1 52 3.9 SSE 9 13 5 7 - - 0.2
14/10:30pm 11.6 7.6 0.6 47 4.6 SSW 11 17 6 9 - - 0.2
14/10:00pm 12.0 8.3 -0.1 43 5.0 E 9 13 5 7 - - 0.2
14/09:30pm 12.1 8.0 -0.3 42 5.1 N 11 13 6 7 - - 0.2
14/09:00pm 11.5 7.8 2.6 54 3.9 NNE 11 24 6 13 - - 0.2
14/08:30pm 12.4 8.3 2.1 49 4.4 WSW 13 22 7 12 - - 0.2
14/08:00pm 10.1 6.4 4.3 67 2.6 W 13 19 7 10 - - 0.2
14/07:30pm 10.9 7.1 3.7 61 3.2 WNW 13 19 7 10 - - 0.2
14/07:00pm 12.1 9.1 2.3 51 4.2 NNW 7 11 4 6 - - 0.2
14/06:30pm 13.1 9.1 0.6 42 5.3 WNW 11 19 6 10 - - 0.2

Latest Capital City Observations: Canberra | Sydney | Melbourne | Brisbane | Adelaide | Perth | Hobart | Darwin

Other formats

Comma delimited format used in spreadsheet applications
http://www.bom.gov.au/fwo/IDT60901/IDT60901.94964.axf

JavaScript Object Notation format (JSON) in row-major order
http://www.bom.gov.au/fwo/IDT60901/IDT60901.94964.json

Data quality

Most of these data are generated automatically and are frequently updated. Quality checks on data are not normally performed. It is possible for incorrect values to appear. Refer to information at About Latest Weather Observations and please check the disclaimer before using these data.